Bigpoint, Mississippi
Current Conditions -  °F | °C
As of 7:53 AM on Sunday 21 Dec 2014 (Local Time) from KPQL Reporting Station
Clear Clear  
Wind Chill: 50°   Ceiling: Unl
Heat Index: 50°   Visibility: 9mi
Dew Point: 48°   Wind: 6mph
Humidity: 93%   Direction: 360°N
Pressure: 30.11"   Gusts: NA
Location:  30.3649°N, 88.5432°W
Report Text: KPQL 211353Z AUTO 36005KT 9SM CLR 10/09 A3011 RMK AO2 SLP196 T01000089 TSNO
Loading
Personal Weather Stations






























Interactive Weather Map New forecast layout! Learn more

10-Day Weather Forecast

Advertisements
Track Severe Weather on mobile